Stolt Spray — ZCSQ9 — position and weather

sailwx.info

Track history (hours):
 
Tides and Currents Weather Stations Pressure Air Temp Water Temp Dewpoint Dewpoint Depression Visibility Wind Speed Wind Dir Waves Ship Positions

Stolt Spray

Last reported at 2017-Oct-17 04:38 UTC. Time now 2017-Oct-18 20:34 UTC.
Position N 25°33' W 079°35'.

Length 163 m; draft 9.4 m.

Type: Ship (hazmat cat A). MMSI: 319591000.

Date/timePositionNaut miles runAvg speedWind from/ knotsBaromVisibWave heightAir tempDewpointWater temp
2017-Oct-17 04:38N 25°33' W 079°35'314.0
2017-Oct-17 04:27N 25°36' W 079°34'613.6
2017-Oct-17 03:59N 25°42' W 079°34'613.5
2017-Oct-17 03:30N 25°48' W 079°33'713.6
2017-Oct-17 03:00N 25°55' W 079°32'1013.7
2017-Oct-17 02:18N 26°05' W 079°30'414.1
2017-Oct-17 02:00N 26°09' W 079°30'4314.0
2017-Oct-16 22:55N 26°51' W 079°22'614.1
2017-Oct-16 22:31N 26°57' W 079°21'  
Track history (hours):
 
Tides and Currents Weather Stations Pressure Air Temp Water Temp Dewpoint Dewpoint Depression Visibility Wind Speed Wind Dir Waves Ship Positions

Stolt Spray

Last reported at 2017-Oct-17 04:38 UTC. Time now 2017-Oct-18 20:34 UTC.
Position N 25°33' W 079°35'.

Length 163 m; draft 9.4 m.

Type: Ship (hazmat cat A). MMSI: 319591000.

Date/timePositionNaut miles runAvg speedWind from/ knotsBaromVisibWave heightAir tempDewpointWater temp
2017-Oct-17 04:38N 25°33' W 079°35'314.0
2017-Oct-17 04:27N 25°36' W 079°34'613.6
2017-Oct-17 03:59N 25°42' W 079°34'613.5
2017-Oct-17 03:30N 25°48' W 079°33'713.6
2017-Oct-17 03:00N 25°55' W 079°32'1013.7
2017-Oct-17 02:18N 26°05' W 079°30'414.1
2017-Oct-17 02:00N 26°09' W 079°30'4314.0
2017-Oct-16 22:55N 26°51' W 079°22'614.1
2017-Oct-16 22:31N 26°57' W 079°21'  

Dump ship's entire track history